Saint Paul, MN

14:50 CDT le 27 mai 2015 (GMT -0500)
Mounds Park, East Metro | | Change Station
CLOSE
Current Station
Stations météorologiques personnelles
Location: Saint Paul, MN
Altitude: 850 ft
Stations météo à proximité

Alt. 850 ft 44.95 °N, 93.06 °W | Updated 5 minutes ago

Clear
Ciel dégagé
77.3 ° F
Paraît 79 ° F
N
2.0
Vent Variable Vent de Est
Gusts 9.0 mph

Aujourd'hui
Haut(e) -- | Bas -- ° F
--% Risque de précip.
Hier
Haut(e) -- | Bas -- ° F
Precip. -- pouce
5:32 AM 8:47 PM
Lune gibbeuse croissante, 69% visible
Pression 29.94 pouce
Visibilité 10.0 Miles terrestres
Nuages Ciel dégagé
indice de chaleur 79 ° F
Point de rosée 54 ° F
Humidité 44%
Précipitations -999.00 pouce
Profondeur de la couche neigeuse Non disponible.
UV 11 sur 12
Pollen 7.90 sur 12
Qualité de l'air Non disponible.
Flu Activity Sporadic
METAR KSTP 271853Z 24010KT 10SM CLR 26/14 A2995 RMK AO2 SLP138 T02560144

More Conditions Fewer Conditions

Pression 29.94 pouce
Visibilité 10.0 Miles terrestres
Nuages Ciel dégagé
indice de chaleur 79 ° F
Point de rosée 54 ° F
Humidité 44%
Précipitations -999.00 pouce
Profondeur de la couche neigeuse Non disponible.
UV 11 sur 12
Pollen 7.90 sur 12
Qualité de l'air Non disponible.
Flu Activity Sporadic
METAR KSTP 271853Z 24010KT 10SM CLR 26/14 A2995 RMK AO2 SLP138 T02560144

More Conditions Fewer Conditions

10-Day Weather Forecast

Almanac

Astronomie

May. 27, 2015 Lever Coucher
Temps réel
Crépuscule civil
Crépuscule nautique
Crépuscule astronomique
Lune
Durée de lumière visible
Longueur du jour
Tomorrow will be .
, % of the Moon is Illuminated

Extrêmes aujourd'hui

State Highs State Lows

Community

WunderPhotos

Upload Photos

1,824,774 Photos téléchargées !

WunderBlogs® & News

Nearby

Qualité de l'air

  Qualité de l'air Indice de la qualité de l'air Polluant
Not available.

Épaisseur de neige

Station Depth Altitude

Activité sismique

Ville Distance Mag. Time & Date
Minimum magnitude displayed is 2.5.

Températures des eaux côtières

Lieu Température

Stations

Stations météo à proximité

Emplacement de la station Température Refroidissement éolien Point de rosée Humidité Vent Precip. Alt. Mise à jour Type